.
WxDataArchive / Data Records for 2016-04-08
2016-04-07 April 2016 2016-04-09

Data Records for Friday, 08 April 2016

Time	Temp	Chill	HIndex	Humid	Dewpt	 Wind 	HiWind	WindDir	Rain 	Barom
-----	----	-----	------	-----	-----	------	------	-------	-----	-----
00:00	34.6	34.6	34.6	70	25.8	3	7	315	0.00	29.791 
00:05	34.4	34.4	34.4	70	25.6	2	9	292	0.00	29.791 
00:10	34.3	34.3	34.3	71	25.9	2	9	315	0.00	29.791 
00:15	34.1	34.1	34.1	72	26.0	1	3	315	0.00	29.792 
00:20	34.0	34.0	34.0	73	26.3	1	5	315	0.00	29.792 
00:25	33.8	33.8	33.8	73	26.1	2	6	292	0.00	29.792 
00:30	33.7	33.7	33.7	73	26.0	1	4	292	0.00	29.791 
00:35	33.5	33.5	33.5	73	25.8	2	6	292	0.00	29.791 
00:40	33.4	33.4	33.4	73	25.7	1	4	292	0.00	29.791 
00:45	33.4	33.4	33.4	72	25.4	2	5	315	0.00	29.792 
00:50	33.2	33.2	33.2	72	25.2	2	6	292	0.00	29.792 
00:55	33.2	33.2	33.2	71	24.8	3	11	292	0.00	29.792 
01:00	33.2	33.2	33.2	71	24.8	2	5	315	0.00	29.793 
01:05	33.1	33.1	33.1	70	24.4	2	4	315	0.00	29.793 
01:10	33.1	33.1	33.1	70	24.4	2	7	315	0.00	29.793 
01:15	33.1	33.1	33.1	70	24.4	2	4	292	0.00	29.797 
01:20	32.9	32.9	32.9	70	24.2	1	5	292	0.00	29.797 
01:25	32.8	32.8	32.8	70	24.1	2	5	315	0.00	29.797 
01:30	32.8	32.8	32.8	70	24.1	2	6	315	0.00	29.796 
01:35	32.7	32.7	32.7	70	24.0	2	4	315	0.00	29.796 
01:40	32.7	32.7	32.7	69	23.7	2	5	292	0.00	29.796 
01:45	32.5	32.5	32.5	69	23.5	1	6	292	0.00	29.797 
01:50	32.5	32.5	32.5	69	23.5	2	6	292	0.00	29.797 
01:55	32.4	32.4	32.4	69	23.4	1	10	292	0.00	29.797 
02:00	32.2	32.2	32.2	69	23.2	1	3	315	0.00	29.797 
02:05	32.2	32.2	32.2	69	23.2	1	4	292	0.00	29.797 
02:10	32.2	32.2	32.2	69	23.2	1	3	292	0.00	29.797 
02:15	32.1	32.1	32.1	69	23.1	1	4	292	0.00	29.797 
02:20	32.1	32.1	32.1	69	23.1	1	5	292	0.00	29.797 
02:25	32.1	32.1	32.1	69	23.1	1	4	292	0.00	29.797 
02:30	32.1	32.1	32.1	69	23.1	1	3	292	0.00	29.795 
02:35	31.9	31.9	31.9	70	23.2	1	4	292	0.00	29.795 
02:40	31.9	31.9	31.9	70	23.2	1	4	292	0.00	29.795 
02:45	31.8	31.8	31.8	71	23.5	1	3	292	0.00	29.794 
02:50	31.8	31.8	31.8	71	23.5	1	3	292	0.00	29.794 
02:55	31.8	31.8	31.8	71	23.5	1	5	315	0.00	29.794 
03:00	31.8	31.8	31.8	71	23.5	1	3	315	0.00	29.794 
03:05	31.8	31.8	31.8	70	23.2	2	5	315	0.00	29.794 
03:10	31.8	31.8	31.8	70	23.2	1	3	315	0.00	29.794 
03:15	31.8	31.8	31.8	70	23.2	1	4	315	0.00	29.795 
03:20	31.6	31.6	31.6	71	23.3	0	3	315	0.00	29.795 
03:25	31.6	31.6	31.6	71	23.3	0	3	315	0.00	29.795 
03:30	31.6	31.6	31.6	72	23.6	0	1	315	0.00	29.795 
03:35	31.5	31.5	31.5	72	23.5	0	4	315	0.00	29.795 
03:40	31.3	31.3	31.3	72	23.3	0	3	292	0.00	29.795 
03:45	31.3	31.3	31.3	73	23.7	0	1	292	0.00	29.796 
03:50	31.2	31.2	31.2	73	23.6	0	1	292	0.00	29.796 
03:55	31.0	31.0	31.0	74	23.7	0	1	292	0.00	29.796 
04:00	31.0	31.0	31.0	74	23.7	0	1	292	0.00	29.797 
04:05	30.9	30.9	30.9	75	23.9	0	1	292	0.00	29.797 
04:10	30.7	30.7	30.7	75	23.7	0	0	---	0.00	29.797 
04:15	30.6	30.6	30.6	76	24.0	0	1	292	0.00	29.800 
04:20	30.4	30.4	30.4	76	23.8	0	0	---	0.00	29.800 
04:25	30.3	30.3	30.3	77	24.0	0	0	---	0.00	29.800 
04:30	30.1	30.1	30.1	77	23.8	0	0	---	0.00	29.801 
04:35	30.1	30.1	30.1	78	24.1	0	0	---	0.00	29.801 
04:40	30.0	30.0	30.0	78	24.0	0	0	---	0.00	29.801 
04:45	30.0	30.0	30.0	79	24.3	0	0	---	0.00	29.800 
04:50	30.0	30.0	30.0	79	24.3	0	0	---	0.00	29.800 
04:55	29.8	29.8	29.8	80	24.4	0	1	292	0.00	29.800 
05:00	29.8	29.8	29.8	80	24.4	0	0	---	0.00	29.801 
05:05	29.8	29.8	29.8	81	24.7	0	0	---	0.00	29.801 
05:10	29.8	29.8	29.8	81	24.7	0	1	292	0.00	29.801 
05:15	30.0	30.0	30.0	82	25.2	0	1	292	0.00	29.799 
05:20	30.0	30.0	30.0	82	25.2	0	0	---	0.00	29.799 
05:25	30.0	30.0	30.0	83	25.5	0	0	---	0.00	29.799 
05:30	29.8	29.8	29.8	83	25.3	0	0	---	0.00	29.798 
05:35	29.8	29.8	29.8	83	25.3	0	0	---	0.00	29.798 
05:40	29.7	29.7	29.7	84	25.5	0	0	---	0.00	29.798 
05:45	29.5	29.5	29.5	84	25.3	0	0	---	0.00	29.795 
05:50	29.5	29.5	29.5	84	25.3	0	0	---	0.00	29.795 
05:55	29.4	29.4	29.4	84	25.2	0	0	---	0.00	29.795 
06:00	29.4	29.4	29.4	84	25.2	0	0	---	0.00	29.798 
06:05	29.3	29.3	29.3	85	25.4	0	0	---	0.00	29.798 
06:10	29.3	29.3	29.3	85	25.4	0	0	---	0.00	29.798 
06:15	29.3	29.3	29.3	86	25.6	0	0	---	0.00	29.799 
06:20	29.3	29.3	29.3	86	25.6	0	0	---	0.00	29.799 
06:25	29.3	29.3	29.3	86	25.6	0	0	---	0.00	29.799 
06:30	29.3	29.3	29.3	86	25.6	0	0	---	0.00	29.794 
06:35	29.3	29.3	29.3	86	25.6	0	0	---	0.00	29.794 
06:40	29.3	29.3	29.3	87	25.9	0	0	---	0.00	29.794 
06:45	29.3	29.3	29.3	87	25.9	0	0	---	0.00	29.796 
06:50	29.4	29.4	29.4	87	26.0	0	0	---	0.00	29.796 
06:55	29.4	29.4	29.4	87	26.0	0	0	---	0.00	29.796 
07:00	29.5	29.5	29.5	88	26.4	0	0	---	0.00	29.795 
07:05	29.7	29.7	29.7	88	26.6	0	0	---	0.00	29.795 
07:10	29.8	29.8	29.8	88	26.7	0	0	---	0.00	29.795 
07:15	30.0	30.0	30.0	88	26.9	0	0	---	0.00	29.797 
07:20	30.1	30.1	30.1	88	27.0	0	0	---	0.00	29.797 
07:25	30.3	30.3	30.3	88	27.2	0	0	---	0.00	29.797 
07:30	30.4	30.4	30.4	88	27.3	0	1	292	0.00	29.789 
07:35	30.6	30.6	30.6	88	27.5	0	0	---	0.00	29.789 
07:40	30.7	30.7	30.7	88	27.6	0	0	---	0.00	29.789 
07:45	30.9	30.9	30.9	88	27.8	0	0	---	0.00	29.787 
07:50	31.0	31.0	31.0	88	27.9	0	0	---	0.00	29.787 
07:55	31.2	31.2	31.2	88	28.1	0	0	---	0.00	29.787 
08:00	31.5	31.5	31.5	88	28.4	0	0	---	0.00	29.789 
08:05	31.6	31.6	31.6	89	28.7	0	1	292	0.00	29.789 
08:10	31.9	31.9	31.9	88	28.8	0	0	---	0.00	29.789 
08:15	32.1	32.1	32.1	88	29.0	0	0	---	0.00	29.795 
08:20	32.4	32.4	32.4	88	29.3	0	0	---	0.00	29.795 
08:25	32.5	32.5	32.5	88	29.3	0	0	---	0.00	29.795 
08:30	32.8	32.8	32.8	88	29.6	0	1	292	0.00	29.793 
08:35	33.1	33.1	33.1	88	29.9	0	0	---	0.00	29.793 
08:40	33.4	33.4	33.4	88	30.2	0	0	---	0.00	29.793 
08:45	33.7	33.7	33.7	88	30.5	0	1	292	0.00	29.794 
08:50	34.0	34.0	34.0	88	30.8	0	1	292	0.00	29.794 
08:55	34.3	34.3	34.3	88	31.1	0	1	292	0.00	29.794 
09:00	34.6	34.6	34.6	88	31.4	0	2	292	0.00	29.792 
09:05	34.7	34.7	34.7	87	31.2	0	1	292	0.00	29.792 
09:10	34.9	34.9	34.9	87	31.4	0	1	292	0.00	29.792 
09:15	35.0	35.0	35.0	86	31.2	0	1	292	0.00	29.795 
09:20	35.2	35.2	35.2	86	31.4	0	1	292	0.00	29.795 
09:25	35.3	35.3	35.3	86	31.5	0	1	292	0.00	29.795 
09:30	35.5	35.5	35.5	86	31.7	0	1	292	0.00	29.787 
09:35	35.8	35.8	35.8	85	31.7	0	1	292	0.00	29.787 
09:40	35.9	35.9	35.9	84	31.5	0	1	292	0.00	29.787 
09:45	35.9	35.9	35.9	84	31.5	0	2	292	0.00	29.790 
09:50	35.9	35.9	35.9	83	31.2	0	1	292	0.00	29.790 
09:55	36.0	36.0	36.0	83	31.3	0	1	292	0.00	29.790 
10:00	36.3	36.3	36.3	82	31.3	0	1	292	0.00	29.791 
10:05	36.6	36.6	36.6	81	31.3	0	2	292	0.00	29.791 
10:10	36.9	36.9	36.9	81	31.6	0	1	292	0.00	29.791 
10:15	37.2	37.2	37.2	79	31.3	0	2	292	0.00	29.787 
10:20	37.3	37.3	37.3	77	30.8	0	2	292	0.00	29.787 
10:25	37.5	37.5	37.5	76	30.6	0	2	292	0.00	29.787 
10:30	37.6	37.6	37.6	75	30.4	0	1	292	0.00	29.789 
10:35	37.6	37.6	37.6	73	29.7	1	2	292	0.00	29.789 
10:40	37.8	37.8	37.8	73	29.9	0	3	292	0.00	29.789 
10:45	37.9	37.9	37.9	73	30.0	1	3	292	0.00	29.792 
10:50	37.9	37.9	37.9	72	29.7	1	4	292	0.00	29.792 
10:55	38.2	38.2	38.2	71	29.6	1	3	292	0.00	29.792 
11:00	38.8	38.8	38.8	72	30.6	1	3	292	0.00	29.792 
11:05	38.9	38.9	38.9	68	29.3	1	5	292	0.00	29.792 
11:10	39.1	39.1	39.1	68	29.4	2	4	292	0.00	29.792 
11:15	39.2	39.2	39.2	67	29.2	1	4	315	0.00	29.791 
11:20	39.2	39.2	39.2	67	29.2	2	5	315	0.00	29.791 
11:25	39.5	39.5	39.5	67	29.5	1	3	315	0.00	29.791 
11:30	40.2	40.2	40.2	65	29.4	1	3	315	0.00	29.787 
11:35	40.6	40.6	40.6	62	28.6	0	2	315	0.00	29.787 
11:40	41.1	41.1	41.1	61	28.7	1	3	292	0.00	29.787 
11:45	41.1	41.1	41.1	59	27.9	1	4	292	0.00	29.783 
11:50	41.1	41.1	41.1	58	27.5	1	4	292	0.00	29.783 
11:55	40.9	40.9	40.9	57	26.9	1	4	292	0.00	29.783 
12:00	41.2	41.2	41.2	59	28.0	1	4	248	0.00	29.780 
12:05	40.9	40.9	40.9	59	27.7	2	7	292	0.00	29.780 
12:10	40.8	40.8	40.8	60	28.0	1	3	270	0.00	29.780 
12:15	40.8	40.8	40.8	59	27.6	1	3	270	0.00	29.779 
12:20	41.2	41.2	41.2	61	28.8	2	7	270	0.00	29.779 
12:25	42.1	42.1	42.1	59	28.8	1	2	292	0.00	29.779 
12:30	42.3	42.3	42.3	59	29.0	1	2	292	0.00	29.776 
12:35	42.6	42.6	42.6	56	28.0	2	4	292	0.00	29.776 
12:40	42.3	42.3	42.3	55	27.3	1	4	270	0.00	29.776 
12:45	42.1	42.1	42.1	57	28.0	1	3	270	0.00	29.775 
12:50	42.1	42.1	42.1	58	28.4	1	4	270	0.00	29.775 
12:55	42.1	42.1	42.1	58	28.4	3	5	270	0.00	29.775 
13:00	41.8	41.8	41.8	60	28.9	1	5	270	0.00	29.769 
13:05	41.8	41.8	41.8	60	28.9	1	3	270	0.00	29.769 
13:10	41.9	41.9	41.9	59	28.6	1	3	270	0.00	29.769 
13:15	42.1	42.1	42.1	59	28.8	1	3	270	0.00	29.763 
13:20	41.9	41.9	41.9	62	29.8	2	4	270	0.00	29.763 
13:25	41.6	41.6	41.6	64	30.3	1	4	225	0.00	29.763 
13:30	41.6	41.6	41.6	66	31.1	0	2	225	0.00	29.764 
13:35	41.8	41.8	41.8	66	31.3	1	3	225	0.00	29.764 
13:40	41.5	41.5	41.5	66	31.0	1	3	248	0.00	29.764 
13:45	41.2	41.2	41.2	69	31.8	1	4	248	0.00	29.766 
13:50	40.8	40.8	40.8	73	32.8	1	3	248	0.00	29.766 
13:55	40.1	40.1	40.1	77	33.5	2	5	248	0.00	29.766 
14:00	39.5	39.5	39.5	80	33.9	1	4	248	0.01	29.765 
14:05	39.3	39.3	39.3	82	34.3	0	2	248	0.00	29.765 
14:10	39.2	39.2	39.2	83	34.5	1	4	248	0.00	29.765 
14:15	39.3	39.3	39.3	83	34.6	0	1	248	0.00	29.761 
14:20	39.5	39.5	39.5	84	35.1	0	2	248	0.00	29.761 
14:25	39.6	39.6	39.6	84	35.2	0	2	248	0.00	29.761 
14:30	39.9	39.9	39.9	83	35.2	0	2	248	0.00	29.748 
14:35	39.9	39.9	39.9	83	35.2	0	1	248	0.00	29.748 
14:40	39.9	39.9	39.9	82	34.9	0	2	248	0.00	29.748 
14:45	40.1	40.1	40.1	82	35.1	0	3	248	0.00	29.744 
14:50	40.2	40.2	40.2	82	35.2	0	2	248	0.00	29.744 
14:55	40.5	40.5	40.5	82	35.4	0	3	248	0.00	29.744 
15:00	40.8	40.8	40.8	82	35.7	0	2	248	0.00	29.733 
15:05	40.8	40.8	40.8	81	35.4	0	2	248	0.00	29.733 
15:10	40.6	40.6	40.6	81	35.2	0	1	248	0.00	29.733 
15:15	40.3	40.3	40.3	81	34.9	0	1	248	0.00	29.732 
15:20	39.9	39.9	39.9	81	34.6	0	1	248	0.01	29.732 
15:25	39.5	39.5	39.5	82	34.5	0	1	248	0.01	29.732 
15:30	39.2	39.2	39.2	84	34.8	0	2	248	0.01	29.729 
15:35	38.9	38.9	38.9	84	34.5	0	3	248	0.02	29.729 
15:40	38.2	38.2	38.2	84	33.8	1	3	248	0.01	29.729 
15:45	37.6	37.6	37.6	86	33.8	0	2	248	0.00	29.728 
15:50	37.8	37.8	37.8	88	34.6	0	2	248	0.00	29.728 
15:55	38.3	38.3	38.3	89	35.3	0	2	248	0.01	29.728 
16:00	39.2	39.2	39.2	90	36.5	0	2	248	0.00	29.717 
16:05	39.5	39.5	39.5	90	36.8	0	2	248	0.00	29.717 
16:10	39.8	39.8	39.8	90	37.1	0	2	248	0.00	29.717 
16:15	40.1	40.1	40.1	90	37.4	0	2	248	0.00	29.709 
16:20	40.5	40.5	40.5	90	37.8	0	2	248	0.00	29.709 
16:25	40.8	40.8	40.8	90	38.1	0	2	248	0.00	29.709 
16:30	40.6	40.6	40.6	90	37.9	0	2	248	0.00	29.702 
16:35	40.9	40.9	40.9	89	37.9	0	1	248	0.00	29.702 
16:40	40.9	40.9	40.9	89	37.9	0	2	248	0.00	29.702 
16:45	40.9	40.9	40.9	89	37.9	0	1	248	0.00	29.695 
16:50	41.1	41.1	41.1	88	37.8	0	2	248	0.00	29.695 
16:55	40.9	40.9	40.9	87	37.3	1	3	338	0.00	29.695 
17:00	39.2	35.5	39.2	84	34.8	5	12	270	0.01	29.708 
17:05	37.2	37.2	37.2	85	33.1	3	7	270	0.01	29.708 
17:10	36.0	36.0	36.0	87	32.5	2	7	270	0.01	29.708 
17:15	35.5	35.5	35.5	88	32.3	3	5	270	0.01	29.718 
17:20	35.2	35.2	35.2	89	32.3	3	5	270	0.01	29.718 
17:25	35.3	35.3	35.3	90	32.7	3	6	270	0.00	29.718 
17:30	35.3	35.3	35.3	90	32.7	2	10	270	0.01	29.716 
17:35	35.3	35.3	35.3	91	32.9	1	4	270	0.00	29.716 
17:40	35.8	35.8	35.8	91	33.4	1	5	270	0.00	29.716 
17:45	36.2	36.2	36.2	92	34.1	2	4	292	0.00	29.707 
17:50	36.8	36.8	36.8	92	34.7	1	4	292	0.00	29.707 
17:55	38.0	38.0	38.0	93	36.2	1	3	292	0.00	29.707 
18:00	38.9	38.9	38.9	92	36.8	1	5	292	0.00	29.703 
18:05	39.2	39.2	39.2	92	37.1	2	4	292	0.00	29.703 
18:10	39.5	39.5	39.5	92	37.4	2	4	270	0.00	29.703 
18:15	39.3	39.3	39.3	91	36.9	3	5	292	0.00	29.711 
18:20	39.5	36.7	39.5	88	36.2	4	10	292	0.00	29.711 
18:25	39.6	39.6	39.6	85	35.5	3	7	292	0.00	29.711 
18:30	39.8	39.8	39.8	83	35.1	1	4	292	0.00	29.717 
18:35	39.6	36.9	39.6	79	33.6	4	7	270	0.00	29.717 
18:40	39.5	36.7	39.5	76	32.6	4	7	270	0.00	29.717 
18:45	39.6	39.6	39.6	75	32.3	3	6	292	0.00	29.725 
18:50	39.5	36.7	39.5	72	31.2	4	10	292	0.00	29.725 
18:55	39.5	39.5	39.5	72	31.2	3	7	315	0.00	29.725 
19:00	39.3	36.5	39.3	71	30.7	4	12	292	0.00	29.734 
19:05	39.2	39.2	39.2	70	30.3	3	7	292	0.00	29.734 
19:10	39.1	36.3	39.1	70	30.2	4	9	315	0.00	29.734 
19:15	39.1	36.3	39.1	69	29.8	4	7	292	0.00	29.734 
19:20	38.9	38.9	38.9	69	29.6	3	11	270	0.00	29.734 
19:25	38.8	38.8	38.8	71	30.2	3	10	292	0.00	29.734 
19:30	38.5	35.6	38.5	71	29.9	4	10	292	0.00	29.749 
19:35	38.0	35.0	38.0	72	29.8	4	10	292	0.00	29.749 
19:40	37.9	37.9	37.9	70	29.0	3	10	292	0.00	29.749 
19:45	37.8	37.8	37.8	69	28.6	3	9	292	0.00	29.752 
19:50	37.8	37.8	37.8	70	28.9	3	9	292	0.00	29.752 
19:55	37.6	37.6	37.6	70	28.7	3	5	270	0.00	29.752 
20:00	37.6	34.5	37.6	69	28.4	4	7	270	0.00	29.762 
20:05	37.5	34.4	37.5	69	28.3	4	10	270	0.00	29.762 
20:10	37.2	33.2	37.2	72	29.0	5	10	270	0.00	29.762 
20:15	36.2	32.0	36.2	75	29.1	5	10	270	0.00	29.769 
20:20	35.6	32.2	35.6	75	28.5	4	12	270	0.00	29.769 
20:25	35.2	31.8	35.2	74	27.8	4	9	292	0.00	29.769 
20:30	35.0	31.5	35.0	74	27.6	4	10	292	0.00	29.773 
20:35	34.9	34.9	34.9	75	27.8	2	9	292	0.00	29.773 
20:40	34.7	34.7	34.7	75	27.6	2	5	292	0.00	29.773 
20:45	34.7	34.7	34.7	75	27.6	2	5	315	0.00	29.780 
20:50	34.6	34.6	34.6	76	27.8	2	5	292	0.00	29.780 
20:55	34.6	34.6	34.6	75	27.5	3	9	292	0.00	29.780 
21:00	34.6	34.6	34.6	73	26.9	3	9	270	0.00	29.778 
21:05	34.6	34.6	34.6	73	26.9	2	3	292	0.00	29.778 
21:10	34.6	34.6	34.6	72	26.5	3	6	292	0.00	29.778 
21:15	34.6	34.6	34.6	72	26.5	2	5	292	0.00	29.781 
21:20	34.6	34.6	34.6	70	25.8	3	10	292	0.00	29.781 
21:25	34.6	34.6	34.6	69	25.5	3	10	270	0.00	29.781 
21:30	34.6	31.1	34.6	67	24.8	4	9	292	0.00	29.786 
21:35	34.6	34.6	34.6	66	24.4	3	9	292	0.00	29.786 
21:40	34.4	34.4	34.4	65	23.9	2	7	292	0.00	29.786 
21:45	34.1	34.1	34.1	66	23.9	1	5	292	0.00	29.790 
21:50	34.1	34.1	34.1	66	23.9	2	5	292	0.00	29.790 
21:55	34.0	34.0	34.0	67	24.2	1	5	292	0.00	29.790 
22:00	33.8	33.8	33.8	68	24.4	1	4	315	0.00	29.796 
22:05	33.7	33.7	33.7	68	24.3	2	5	292	0.00	29.796 
22:10	33.7	33.7	33.7	67	23.9	2	5	270	0.00	29.796 
22:15	33.7	33.7	33.7	66	23.6	2	7	315	0.00	29.795 
22:20	33.5	33.5	33.5	66	23.4	1	6	292	0.00	29.795 
22:25	33.4	33.4	33.4	67	23.6	1	5	292	0.00	29.795 
22:30	33.4	33.4	33.4	67	23.6	2	7	292	0.00	29.795 
22:35	33.4	33.4	33.4	67	23.6	1	4	270	0.00	29.795 
22:40	33.2	33.2	33.2	69	24.2	1	4	292	0.00	29.795 
22:45	33.1	33.1	33.1	69	24.1	1	4	270	0.00	29.795 
22:50	32.9	32.9	32.9	69	23.9	2	5	292	0.00	29.795 
22:55	32.8	32.8	32.8	69	23.8	1	3	292	0.00	29.795 
23:00	32.7	32.7	32.7	70	24.0	1	6	292	0.00	29.794 
23:05	32.7	32.7	32.7	71	24.4	1	4	315	0.00	29.794 
23:10	32.5	32.5	32.5	71	24.2	2	4	292	0.00	29.794 
23:15	32.5	32.5	32.5	71	24.2	2	5	315	0.00	29.793 
23:20	32.4	32.4	32.4	71	24.1	1	9	315	0.00	29.793 
23:25	32.4	32.4	32.4	70	23.7	3	10	292	0.00	29.793 
23:30	32.4	28.5	32.4	69	23.4	4	10	292	0.00	29.795 
23:35	32.4	32.4	32.4	69	23.4	2	7	292	0.00	29.795 
23:40	32.4	32.4	32.4	69	23.4	3	7	292	0.00	29.795 
23:45	32.2	32.2	32.2	69	23.2	2	6	292	0.00	29.793 
23:50	32.1	32.1	32.1	69	23.1	3	9	292	0.00	29.793 
23:55	32.1	32.1	32.1	68	22.7	3	9	292	0.00	29.793 

CoCoRaHS
IN-AL-39
A2 Web Hosting
Creative Commons License
GoDaddy
search engine by freefind advanced

loaded 2018-11-15 16:29:50 • last modified 2010-11-18 10:43:29
Privacy PolicyDisclaimer
• wx.awcolley.com is powered by PmWiki v.2002016 •
• all content (unless otherwise noted) © 2018 A W Colley